sensor_id;sensor_type;location;lat;lon;timestamp;P1;durP1;ratioP1;P2;durP2;ratioP2
25009;SDS011;13026;49.486;10.926;2022-08-03T00:01:47;6.75;;;2.35;;
25009;SDS011;13026;49.486;10.926;2022-08-03T00:04:13;5.22;;;2.20;;
25009;SDS011;13026;49.486;10.926;2022-08-03T00:06:39;5.28;;;2.35;;
25009;SDS011;13026;49.486;10.926;2022-08-03T00:09:04;3.50;;;2.25;;
25009;SDS011;13026;49.486;10.926;2022-08-03T00:11:30;6.70;;;2.17;;
25009;SDS011;13026;49.486;10.926;2022-08-03T00:13:55;8.68;;;2.65;;
25009;SDS011;13026;49.486;10.926;2022-08-03T00:16:21;4.13;;;2.60;;
25009;SDS011;13026;49.486;10.926;2022-08-03T00:18:46;4.72;;;2.60;;
25009;SDS011;13026;49.486;10.926;2022-08-03T00:21:12;4.22;;;2.40;;
25009;SDS011;13026;49.486;10.926;2022-08-03T00:23:37;3.10;;;2.83;;
25009;SDS011;13026;49.486;10.926;2022-08-03T00:26:03;9.23;;;2.60;;
25009;SDS011;13026;49.486;10.926;2022-08-03T00:28:28;3.65;;;2.60;;
25009;SDS011;13026;49.486;10.926;2022-08-03T00:30:54;6.38;;;2.60;;
25009;SDS011;13026;49.486;10.926;2022-08-03T00:33:20;5.00;;;2.40;;
25009;SDS011;13026;49.486;10.926;2022-08-03T00:35:45;7.72;;;2.50;;
25009;SDS011;13026;49.486;10.926;2022-08-03T00:38:11;4.15;;;2.17;;
25009;SDS011;13026;49.486;10.926;2022-08-03T00:40:36;6.60;;;2.80;;
25009;SDS011;13026;49.486;10.926;2022-08-03T00:43:03;3.50;;;2.25;;
25009;SDS011;13026;49.486;10.926;2022-08-03T00:45:30;5.80;;;2.33;;
25009;SDS011;13026;49.486;10.926;2022-08-03T00:47:58;8.45;;;2.50;;
25009;SDS011;13026;49.486;10.926;2022-08-03T00:50:24;3.42;;;2.78;;
25009;SDS011;13026;49.486;10.926;2022-08-03T00:52:52;4.65;;;2.22;;
25009;SDS011;13026;49.486;10.926;2022-08-03T00:55:20;5.03;;;2.58;;
25009;SDS011;13026;49.486;10.926;2022-08-03T00:57:46;3.53;;;2.35;;
25009;SDS011;13026;49.486;10.926;2022-08-03T01:00:13;3.65;;;2.72;;
25009;SDS011;13026;49.486;10.926;2022-08-03T01:02:40;4.47;;;3.08;;
25009;SDS011;13026;49.486;10.926;2022-08-03T01:05:06;2.95;;;2.70;;
25009;SDS011;13026;49.486;10.926;2022-08-03T01:07:49;4.75;;;2.50;;
25009;SDS011;13026;49.486;10.926;2022-08-03T01:10:34;3.67;;;2.53;;
25009;SDS011;13026;49.486;10.926;2022-08-03T01:16:14;6.03;;;2.92;;
25009;SDS011;13026;49.486;10.926;2022-08-03T01:19:23;3.33;;;2.75;;
25009;SDS011;13026;49.486;10.926;2022-08-03T01:27:42;5.07;;;2.83;;
25009;SDS011;13026;49.486;10.926;2022-08-03T01:30:18;3.13;;;2.63;;
25009;SDS011;13026;49.486;10.926;2022-08-03T01:32:45;3.53;;;2.65;;
25009;SDS011;13026;49.486;10.926;2022-08-03T01:35:21;3.08;;;2.80;;
25009;SDS011;13026;49.486;10.926;2022-08-03T01:37:53;2.78;;;2.42;;
25009;SDS011;13026;49.486;10.926;2022-08-03T01:40:22;4.53;;;2.95;;
25009;SDS011;13026;49.486;10.926;2022-08-03T01:42:51;3.75;;;2.70;;
25009;SDS011;13026;49.486;10.926;2022-08-03T01:45:19;3.33;;;3.03;;
25009;SDS011;13026;49.486;10.926;2022-08-03T01:47:46;3.08;;;2.80;;
25009;SDS011;13026;49.486;10.926;2022-08-03T01:50:13;6.07;;;2.97;;
25009;SDS011;13026;49.486;10.926;2022-08-03T01:52:41;3.45;;;2.75;;
25009;SDS011;13026;49.486;10.926;2022-08-03T01:55:09;6.47;;;2.78;;
25009;SDS011;13026;49.486;10.926;2022-08-03T01:57:37;3.28;;;2.90;;
25009;SDS011;13026;49.486;10.926;2022-08-03T02:00:04;5.25;;;3.15;;
25009;SDS011;13026;49.486;10.926;2022-08-03T02:02:36;8.07;;;3.30;;
25009;SDS011;13026;49.486;10.926;2022-08-03T02:05:05;4.35;;;3.15;;
25009;SDS011;13026;49.486;10.926;2022-08-03T02:07:33;4.25;;;2.70;;
25009;SDS011;13026;49.486;10.926;2022-08-03T02:10:01;3.75;;;3.45;;
25009;SDS011;13026;49.486;10.926;2022-08-03T02:12:29;4.07;;;3.15;;
25009;SDS011;13026;49.486;10.926;2022-08-03T02:14:56;5.13;;;3.25;;
25009;SDS011;13026;49.486;10.926;2022-08-03T02:17:25;8.10;;;3.22;;
25009;SDS011;13026;49.486;10.926;2022-08-03T02:19:52;3.20;;;2.90;;
25009;SDS011;13026;49.486;10.926;2022-08-03T02:22:20;5.18;;;3.35;;
25009;SDS011;13026;49.486;10.926;2022-08-03T02:24:46;6.13;;;3.33;;
25009;SDS011;13026;49.486;10.926;2022-08-03T02:27:47;6.07;;;3.30;;
25009;SDS011;13026;49.486;10.926;2022-08-03T02:30:07;4.75;;;2.90;;
25009;SDS011;13026;49.486;10.926;2022-08-03T02:32:35;4.28;;;3.30;;
25009;SDS011;13026;49.486;10.926;2022-08-03T02:35:05;3.38;;;3.10;;
25009;SDS011;13026;49.486;10.926;2022-08-03T02:37:35;3.70;;;3.30;;
25009;SDS011;13026;49.486;10.926;2022-08-03T02:40:06;6.55;;;3.10;;
25009;SDS011;13026;49.486;10.926;2022-08-03T02:42:34;7.82;;;3.10;;
25009;SDS011;13026;49.486;10.926;2022-08-03T02:45:03;7.35;;;3.17;;
25009;SDS011;13026;49.486;10.926;2022-08-03T02:47:31;4.78;;;3.20;;
25009;SDS011;13026;49.486;10.926;2022-08-03T02:50:00;5.13;;;3.33;;
25009;SDS011;13026;49.486;10.926;2022-08-03T02:52:27;3.90;;;3.25;;
25009;SDS011;13026;49.486;10.926;2022-08-03T02:54:58;4.38;;;3.00;;
25009;SDS011;13026;49.486;10.926;2022-08-03T02:57:27;7.15;;;3.25;;
25009;SDS011;13026;49.486;10.926;2022-08-03T02:59:55;5.13;;;3.22;;
25009;SDS011;13026;49.486;10.926;2022-08-03T03:02:22;3.40;;;2.97;;
25009;SDS011;13026;49.486;10.926;2022-08-03T03:04:49;7.10;;;3.47;;
25009;SDS011;13026;49.486;10.926;2022-08-03T03:07:16;5.32;;;3.28;;
25009;SDS011;13026;49.486;10.926;2022-08-03T03:09:42;3.80;;;3.40;;
25009;SDS011;13026;49.486;10.926;2022-08-03T03:12:09;4.22;;;3.42;;
25009;SDS011;13026;49.486;10.926;2022-08-03T03:14:37;3.92;;;3.35;;
25009;SDS011;13026;49.486;10.926;2022-08-03T03:17:03;3.75;;;3.45;;
25009;SDS011;13026;49.486;10.926;2022-08-03T03:19:31;4.45;;;3.63;;
25009;SDS011;13026;49.486;10.926;2022-08-03T03:21:58;3.78;;;3.42;;
25009;SDS011;13026;49.486;10.926;2022-08-03T03:24:25;6.03;;;3.45;;
25009;SDS011;13026;49.486;10.926;2022-08-03T03:26:52;6.70;;;3.28;;
25009;SDS011;13026;49.486;10.926;2022-08-03T03:29:18;4.22;;;3.70;;
25009;SDS011;13026;49.486;10.926;2022-08-03T03:31:45;4.85;;;3.20;;
25009;SDS011;13026;49.486;10.926;2022-08-03T03:34:10;5.82;;;3.58;;
25009;SDS011;13026;49.486;10.926;2022-08-03T03:36:36;5.82;;;3.30;;
25009;SDS011;13026;49.486;10.926;2022-08-03T03:39:02;7.28;;;2.92;;
25009;SDS011;13026;49.486;10.926;2022-08-03T03:41:27;6.22;;;3.25;;
25009;SDS011;13026;49.486;10.926;2022-08-03T03:43:53;4.45;;;3.47;;
25009;SDS011;13026;49.486;10.926;2022-08-03T03:46:19;4.68;;;3.40;;
25009;SDS011;13026;49.486;10.926;2022-08-03T03:48:45;7.38;;;3.72;;
25009;SDS011;13026;49.486;10.926;2022-08-03T03:51:10;4.28;;;3.88;;
25009;SDS011;13026;49.486;10.926;2022-08-03T03:53:36;6.05;;;3.40;;
25009;SDS011;13026;49.486;10.926;2022-08-03T03:56:02;4.10;;;3.55;;
25009;SDS011;13026;49.486;10.926;2022-08-03T03:58:29;3.75;;;3.45;;
25009;SDS011;13026;49.486;10.926;2022-08-03T04:00:55;3.70;;;3.13;;
25009;SDS011;13026;49.486;10.926;2022-08-03T04:03:21;5.05;;;3.50;;
25009;SDS011;13026;49.486;10.926;2022-08-03T04:05:46;3.60;;;3.30;;
25009;SDS011;13026;49.486;10.926;2022-08-03T04:08:15;4.22;;;3.83;;
25009;SDS011;13026;49.486;10.926;2022-08-03T04:10:42;10.88;;;4.30;;
25009;SDS011;13026;49.486;10.926;2022-08-03T04:13:18;3.83;;;3.20;;
25009;SDS011;13026;49.486;10.926;2022-08-03T04:15:46;3.58;;;3.25;;
25009;SDS011;13026;49.486;10.926;2022-08-03T04:18:14;4.93;;;3.55;;
25009;SDS011;13026;49.486;10.926;2022-08-03T04:20:41;4.25;;;3.85;;
25009;SDS011;13026;49.486;10.926;2022-08-03T04:23:09;12.50;;;3.90;;
25009;SDS011;13026;49.486;10.926;2022-08-03T04:25:37;8.52;;;3.58;;
25009;SDS011;13026;49.486;10.926;2022-08-03T04:28:05;6.35;;;3.58;;
25009;SDS011;13026;49.486;10.926;2022-08-03T04:30:32;4.47;;;4.07;;
25009;SDS011;13026;49.486;10.926;2022-08-03T04:33:01;6.25;;;3.72;;
25009;SDS011;13026;49.486;10.926;2022-08-03T04:35:28;10.60;;;3.95;;
25009;SDS011;13026;49.486;10.926;2022-08-03T04:37:58;7.20;;;3.65;;
25009;SDS011;13026;49.486;10.926;2022-08-03T04:40:29;6.80;;;3.58;;
25009;SDS011;13026;49.486;10.926;2022-08-03T04:42:56;7.10;;;3.80;;
25009;SDS011;13026;49.486;10.926;2022-08-03T04:45:23;6.45;;;3.67;;
25009;SDS011;13026;49.486;10.926;2022-08-03T04:47:49;6.80;;;4.05;;
25009;SDS011;13026;49.486;10.926;2022-08-03T04:50:16;10.40;;;3.92;;
25009;SDS011;13026;49.486;10.926;2022-08-03T04:52:42;7.72;;;4.07;;
25009;SDS011;13026;49.486;10.926;2022-08-03T04:55:08;7.55;;;3.53;;
25009;SDS011;13026;49.486;10.926;2022-08-03T04:57:34;5.10;;;3.55;;
25009;SDS011;13026;49.486;10.926;2022-08-03T04:59:59;4.05;;;3.58;;
25009;SDS011;13026;49.486;10.926;2022-08-03T05:02:25;4.70;;;3.65;;
25009;SDS011;13026;49.486;10.926;2022-08-03T05:04:50;5.28;;;3.75;;
25009;SDS011;13026;49.486;10.926;2022-08-03T05:07:16;9.52;;;4.22;;
25009;SDS011;13026;49.486;10.926;2022-08-03T05:09:42;5.10;;;3.85;;
25009;SDS011;13026;49.486;10.926;2022-08-03T05:12:09;5.20;;;3.80;;
25009;SDS011;13026;49.486;10.926;2022-08-03T05:14:35;6.90;;;4.35;;
25009;SDS011;13026;49.486;10.926;2022-08-03T05:17:01;7.40;;;4.25;;
25009;SDS011;13026;49.486;10.926;2022-08-03T05:19:27;5.45;;;4.00;;
25009;SDS011;13026;49.486;10.926;2022-08-03T05:21:54;5.32;;;4.03;;
25009;SDS011;13026;49.486;10.926;2022-08-03T05:24:19;4.35;;;3.95;;
25009;SDS011;13026;49.486;10.926;2022-08-03T05:26:45;7.85;;;4.40;;
25009;SDS011;13026;49.486;10.926;2022-08-03T05:29:10;7.55;;;4.20;;
25009;SDS011;13026;49.486;10.926;2022-08-03T05:31:36;11.45;;;4.60;;
25009;SDS011;13026;49.486;10.926;2022-08-03T05:34:01;6.85;;;4.90;;
25009;SDS011;13026;49.486;10.926;2022-08-03T05:36:27;5.88;;;5.13;;
25009;SDS011;13026;49.486;10.926;2022-08-03T05:38:52;4.80;;;4.40;;
25009;SDS011;13026;49.486;10.926;2022-08-03T05:41:18;7.18;;;5.00;;
25009;SDS011;13026;49.486;10.926;2022-08-03T05:43:44;6.72;;;5.07;;
25009;SDS011;13026;49.486;10.926;2022-08-03T05:46:09;7.38;;;5.60;;
25009;SDS011;13026;49.486;10.926;2022-08-03T05:48:35;6.28;;;5.70;;
25009;SDS011;13026;49.486;10.926;2022-08-03T05:51:00;6.07;;;5.57;;
25009;SDS011;13026;49.486;10.926;2022-08-03T05:53:26;16.73;;;5.85;;
25009;SDS011;13026;49.486;10.926;2022-08-03T05:55:51;10.88;;;6.00;;
25009;SDS011;13026;49.486;10.926;2022-08-03T05:58:19;19.35;;;6.13;;
25009;SDS011;13026;49.486;10.926;2022-08-03T06:00:44;6.72;;;5.70;;
25009;SDS011;13026;49.486;10.926;2022-08-03T06:03:10;8.13;;;5.75;;
25009;SDS011;13026;49.486;10.926;2022-08-03T06:05:35;6.95;;;5.47;;
25009;SDS011;13026;49.486;10.926;2022-08-03T06:08:02;8.15;;;5.43;;
25009;SDS011;13026;49.486;10.926;2022-08-03T06:10:27;9.48;;;5.55;;
25009;SDS011;13026;49.486;10.926;2022-08-03T06:12:53;9.48;;;5.28;;
25009;SDS011;13026;49.486;10.926;2022-08-03T06:15:18;8.57;;;5.57;;
25009;SDS011;13026;49.486;10.926;2022-08-03T06:17:48;11.25;;;5.80;;
25009;SDS011;13026;49.486;10.926;2022-08-03T06:20:20;11.88;;;5.32;;
25009;SDS011;13026;49.486;10.926;2022-08-03T06:22:46;6.97;;;5.20;;
25009;SDS011;13026;49.486;10.926;2022-08-03T06:25:12;6.57;;;5.10;;
25009;SDS011;13026;49.486;10.926;2022-08-03T06:27:38;6.07;;;5.15;;
25009;SDS011;13026;49.486;10.926;2022-08-03T06:30:04;8.30;;;4.82;;
25009;SDS011;13026;49.486;10.926;2022-08-03T06:32:33;12.65;;;4.78;;
25009;SDS011;13026;49.486;10.926;2022-08-03T06:34:59;10.27;;;4.53;;
25009;SDS011;13026;49.486;10.926;2022-08-03T06:37:25;7.65;;;4.22;;
25009;SDS011;13026;49.486;10.926;2022-08-03T06:39:50;5.00;;;4.15;;
25009;SDS011;13026;49.486;10.926;2022-08-03T06:42:16;12.07;;;4.57;;
25009;SDS011;13026;49.486;10.926;2022-08-03T06:44:42;8.18;;;4.50;;
25009;SDS011;13026;49.486;10.926;2022-08-03T06:47:07;5.53;;;4.60;;
25009;SDS011;13026;49.486;10.926;2022-08-03T06:49:33;8.73;;;4.45;;
25009;SDS011;13026;49.486;10.926;2022-08-03T06:51:58;6.47;;;4.50;;
25009;SDS011;13026;49.486;10.926;2022-08-03T06:54:24;7.47;;;4.55;;
25009;SDS011;13026;49.486;10.926;2022-08-03T06:56:50;6.45;;;4.45;;
25009;SDS011;13026;49.486;10.926;2022-08-03T06:59:15;8.15;;;4.60;;
25009;SDS011;13026;49.486;10.926;2022-08-03T07:01:41;7.68;;;4.38;;
25009;SDS011;13026;49.486;10.926;2022-08-03T07:04:06;7.78;;;4.97;;
25009;SDS011;13026;49.486;10.926;2022-08-03T07:06:32;16.35;;;5.32;;
25009;SDS011;13026;49.486;10.926;2022-08-03T07:08:57;14.43;;;4.38;;
25009;SDS011;13026;49.486;10.926;2022-08-03T07:11:23;5.53;;;3.85;;
25009;SDS011;13026;49.486;10.926;2022-08-03T07:13:48;11.63;;;4.55;;
25009;SDS011;13026;49.486;10.926;2022-08-03T07:16:14;10.07;;;4.88;;
25009;SDS011;13026;49.486;10.926;2022-08-03T07:18:40;11.52;;;4.38;;
25009;SDS011;13026;49.486;10.926;2022-08-03T07:21:06;12.93;;;4.80;;
25009;SDS011;13026;49.486;10.926;2022-08-03T07:23:31;8.65;;;4.15;;
25009;SDS011;13026;49.486;10.926;2022-08-03T07:25:57;11.52;;;3.38;;
25009;SDS011;13026;49.486;10.926;2022-08-03T07:28:22;6.78;;;4.35;;
25009;SDS011;13026;49.486;10.926;2022-08-03T07:30:48;10.38;;;3.70;;
25009;SDS011;13026;49.486;10.926;2022-08-03T07:33:13;11.50;;;3.47;;
25009;SDS011;13026;49.486;10.926;2022-08-03T07:35:39;10.15;;;3.97;;
25009;SDS011;13026;49.486;10.926;2022-08-03T07:38:04;5.70;;;3.15;;
25009;SDS011;13026;49.486;10.926;2022-08-03T07:40:30;6.35;;;3.50;;
25009;SDS011;13026;49.486;10.926;2022-08-03T07:42:56;7.97;;;4.25;;
25009;SDS011;13026;49.486;10.926;2022-08-03T07:45:21;6.32;;;3.83;;
25009;SDS011;13026;49.486;10.926;2022-08-03T07:47:47;8.68;;;3.38;;
25009;SDS011;13026;49.486;10.926;2022-08-03T07:50:12;7.22;;;3.50;;
25009;SDS011;13026;49.486;10.926;2022-08-03T07:52:38;3.90;;;3.33;;
25009;SDS011;13026;49.486;10.926;2022-08-03T07:55:06;10.07;;;3.38;;
25009;SDS011;13026;49.486;10.926;2022-08-03T07:57:33;4.93;;;3.05;;
25009;SDS011;13026;49.486;10.926;2022-08-03T07:59:59;10.98;;;3.30;;
25009;SDS011;13026;49.486;10.926;2022-08-03T08:02:24;3.47;;;2.45;;
25009;SDS011;13026;49.486;10.926;2022-08-03T08:04:50;8.52;;;2.92;;
25009;SDS011;13026;49.486;10.926;2022-08-03T08:07:15;8.80;;;2.70;;
25009;SDS011;13026;49.486;10.926;2022-08-03T08:09:41;10.00;;;2.80;;
25009;SDS011;13026;49.486;10.926;2022-08-03T08:12:07;9.13;;;3.25;;
25009;SDS011;13026;49.486;10.926;2022-08-03T08:14:33;10.18;;;3.00;;
25009;SDS011;13026;49.486;10.926;2022-08-03T08:16:59;5.70;;;2.42;;
25009;SDS011;13026;49.486;10.926;2022-08-03T08:19:25;3.05;;;2.58;;
25009;SDS011;13026;49.486;10.926;2022-08-03T08:21:50;9.10;;;2.83;;
25009;SDS011;13026;49.486;10.926;2022-08-03T08:24:16;4.55;;;2.33;;
25009;SDS011;13026;49.486;10.926;2022-08-03T08:26:41;5.32;;;2.40;;
25009;SDS011;13026;49.486;10.926;2022-08-03T08:29:07;2.88;;;2.50;;
25009;SDS011;13026;49.486;10.926;2022-08-03T08:31:33;9.15;;;2.63;;
25009;SDS011;13026;49.486;10.926;2022-08-03T08:33:58;2.42;;;2.22;;
25009;SDS011;13026;49.486;10.926;2022-08-03T08:36:24;3.90;;;2.55;;
25009;SDS011;13026;49.486;10.926;2022-08-03T08:38:49;6.60;;;2.38;;
25009;SDS011;13026;49.486;10.926;2022-08-03T08:41:15;11.45;;;2.28;;
25009;SDS011;13026;49.486;10.926;2022-08-03T08:43:41;3.55;;;2.40;;
25009;SDS011;13026;49.486;10.926;2022-08-03T08:46:07;5.50;;;2.28;;
25009;SDS011;13026;49.486;10.926;2022-08-03T08:48:38;7.00;;;2.60;;
25009;SDS011;13026;49.486;10.926;2022-08-03T08:51:05;6.97;;;2.47;;
25009;SDS011;13026;49.486;10.926;2022-08-03T08:53:33;4.57;;;2.50;;
25009;SDS011;13026;49.486;10.926;2022-08-03T08:56:01;2.58;;;2.15;;
25009;SDS011;13026;49.486;10.926;2022-08-03T08:58:33;9.32;;;2.45;;
25009;SDS011;13026;49.486;10.926;2022-08-03T09:01:05;3.30;;;2.33;;
25009;SDS011;13026;49.486;10.926;2022-08-03T09:03:32;7.43;;;2.40;;
25009;SDS011;13026;49.486;10.926;2022-08-03T09:05:58;6.38;;;2.60;;
25009;SDS011;13026;49.486;10.926;2022-08-03T09:08:24;9.20;;;2.67;;
25009;SDS011;13026;49.486;10.926;2022-08-03T09:10:50;6.53;;;2.38;;
25009;SDS011;13026;49.486;10.926;2022-08-03T09:13:15;2.67;;;2.42;;
25009;SDS011;13026;49.486;10.926;2022-08-03T09:15:41;5.90;;;2.00;;
25009;SDS011;13026;49.486;10.926;2022-08-03T09:18:06;3.47;;;2.13;;
25009;SDS011;13026;49.486;10.926;2022-08-03T09:20:32;3.25;;;2.47;;
25009;SDS011;13026;49.486;10.926;2022-08-03T09:23:03;5.68;;;2.70;;
25009;SDS011;13026;49.486;10.926;2022-08-03T09:28:20;8.80;;;2.40;;
25009;SDS011;13026;49.486;10.926;2022-08-03T09:30:56;4.13;;;2.30;;
25009;SDS011;13026;49.486;10.926;2022-08-03T09:33:24;4.78;;;2.63;;
25009;SDS011;13026;49.486;10.926;2022-08-03T09:35:50;6.18;;;2.42;;
25009;SDS011;13026;49.486;10.926;2022-08-03T09:40:46;5.82;;;2.35;;
25009;SDS011;13026;49.486;10.926;2022-08-03T09:43:11;3.45;;;2.40;;
25009;SDS011;13026;49.486;10.926;2022-08-03T09:45:37;4.68;;;2.78;;
25009;SDS011;13026;49.486;10.926;2022-08-03T09:50:48;2.92;;;2.40;;
25009;SDS011;13026;49.486;10.926;2022-08-03T09:53:21;2.53;;;2.10;;
25009;SDS011;13026;49.486;10.926;2022-08-03T09:55:53;2.70;;;1.92;;
25009;SDS011;13026;49.486;10.926;2022-08-03T09:58:21;2.05;;;1.52;;
25009;SDS011;13026;49.486;10.926;2022-08-03T10:00:51;5.13;;;1.77;;
25009;SDS011;13026;49.486;10.926;2022-08-03T10:03:22;2.00;;;1.90;;
25009;SDS011;13026;49.486;10.926;2022-08-03T10:05:48;8.10;;;2.33;;
25009;SDS011;13026;49.486;10.926;2022-08-03T10:08:14;4.78;;;2.28;;
25009;SDS011;13026;49.486;10.926;2022-08-03T10:10:42;3.38;;;1.92;;
25009;SDS011;13026;49.486;10.926;2022-08-03T10:13:10;2.67;;;1.90;;
25009;SDS011;13026;49.486;10.926;2022-08-03T10:15:38;2.92;;;1.88;;
25009;SDS011;13026;49.486;10.926;2022-08-03T10:18:04;2.38;;;1.98;;
25009;SDS011;13026;49.486;10.926;2022-08-03T10:20:29;4.25;;;2.30;;
25009;SDS011;13026;49.486;10.926;2022-08-03T10:23:00;4.30;;;2.00;;
25009;SDS011;13026;49.486;10.926;2022-08-03T10:25:26;6.40;;;2.22;;
25009;SDS011;13026;49.486;10.926;2022-08-03T10:27:54;5.38;;;2.22;;
25009;SDS011;13026;49.486;10.926;2022-08-03T10:30:22;6.55;;;2.10;;
25009;SDS011;13026;49.486;10.926;2022-08-03T10:32:54;2.85;;;1.70;;
25009;SDS011;13026;49.486;10.926;2022-08-03T10:35:24;5.63;;;1.98;;
25009;SDS011;13026;49.486;10.926;2022-08-03T10:37:51;2.30;;;1.90;;
25009;SDS011;13026;49.486;10.926;2022-08-03T10:40:21;5.55;;;1.85;;
25009;SDS011;13026;49.486;10.926;2022-08-03T10:42:48;3.75;;;1.85;;
25009;SDS011;13026;49.486;10.926;2022-08-03T10:45:22;2.47;;;1.92;;
25009;SDS011;13026;49.486;10.926;2022-08-03T10:47:50;5.43;;;1.88;;
25009;SDS011;13026;49.486;10.926;2022-08-03T10:50:17;1.92;;;1.77;;
25009;SDS011;13026;49.486;10.926;2022-08-03T10:55:30;8.70;;;2.28;;
25009;SDS011;13026;49.486;10.926;2022-08-03T10:58:03;5.00;;;1.90;;
25009;SDS011;13026;49.486;10.926;2022-08-03T11:00:28;7.45;;;2.20;;
25009;SDS011;13026;49.486;10.926;2022-08-03T11:03:13;4.60;;;2.08;;
25009;SDS011;13026;49.486;10.926;2022-08-03T11:05:40;6.72;;;2.10;;
25009;SDS011;13026;49.486;10.926;2022-08-03T11:10:47;4.78;;;1.92;;
25009;SDS011;13026;49.486;10.926;2022-08-03T11:13:20;5.75;;;2.20;;
25009;SDS011;13026;49.486;10.926;2022-08-03T11:15:48;2.25;;;1.92;;
25009;SDS011;13026;49.486;10.926;2022-08-03T11:18:17;8.95;;;2.00;;
25009;SDS011;13026;49.486;10.926;2022-08-03T11:23:14;2.58;;;2.38;;
25009;SDS011;13026;49.486;10.926;2022-08-03T11:28:35;5.93;;;2.05;;
25009;SDS011;13026;49.486;10.926;2022-08-03T11:34:09;2.20;;;1.98;;
25009;SDS011;13026;49.486;10.926;2022-08-03T11:39:46;1.95;;;1.77;;
25009;SDS011;13026;49.486;10.926;2022-08-03T11:44:52;3.25;;;2.00;;
25009;SDS011;13026;49.486;10.926;2022-08-03T11:47:22;5.53;;;2.25;;
25009;SDS011;13026;49.486;10.926;2022-08-03T11:49:48;8.07;;;1.77;;
25009;SDS011;13026;49.486;10.926;2022-08-03T11:52:15;4.75;;;2.08;;
25009;SDS011;13026;49.486;10.926;2022-08-03T11:54:42;3.47;;;1.88;;
25009;SDS011;13026;49.486;10.926;2022-08-03T11:57:08;1.85;;;1.73;;
25009;SDS011;13026;49.486;10.926;2022-08-03T11:59:34;3.97;;;1.98;;
25009;SDS011;13026;49.486;10.926;2022-08-03T12:02:05;6.05;;;1.73;;
25009;SDS011;13026;49.486;10.926;2022-08-03T12:04:53;3.50;;;1.60;;
25009;SDS011;13026;49.486;10.926;2022-08-03T12:07:21;1.85;;;1.75;;
25009;SDS011;13026;49.486;10.926;2022-08-03T12:12:31;5.30;;;2.08;;
25009;SDS011;13026;49.486;10.926;2022-08-03T12:14:56;1.60;;;1.50;;
25009;SDS011;13026;49.486;10.926;2022-08-03T12:17:22;5.35;;;1.80;;
25009;SDS011;13026;49.486;10.926;2022-08-03T12:19:47;2.35;;;1.58;;
25009;SDS011;13026;49.486;10.926;2022-08-03T12:22:13;4.63;;;1.63;;
25009;SDS011;13026;49.486;10.926;2022-08-03T12:24:42;4.28;;;1.88;;
25009;SDS011;13026;49.486;10.926;2022-08-03T12:27:08;3.60;;;2.05;;
25009;SDS011;13026;49.486;10.926;2022-08-03T12:29:34;2.13;;;1.90;;
25009;SDS011;13026;49.486;10.926;2022-08-03T12:31:59;5.10;;;1.75;;
25009;SDS011;13026;49.486;10.926;2022-08-03T12:34:47;4.65;;;1.65;;
25009;SDS011;13026;49.486;10.926;2022-08-03T12:37:13;1.88;;;1.42;;
25009;SDS011;13026;49.486;10.926;2022-08-03T12:39:43;4.57;;;1.42;;
25009;SDS011;13026;49.486;10.926;2022-08-03T12:42:15;4.13;;;2.03;;
25009;SDS011;13026;49.486;10.926;2022-08-03T12:44:40;4.68;;;1.55;;
25009;SDS011;13026;49.486;10.926;2022-08-03T12:47:06;6.00;;;1.85;;
25009;SDS011;13026;49.486;10.926;2022-08-03T12:49:48;1.67;;;1.58;;
25009;SDS011;13026;49.486;10.926;2022-08-03T12:52:14;4.70;;;1.95;;
25009;SDS011;13026;49.486;10.926;2022-08-03T12:54:41;5.35;;;1.60;;
25009;SDS011;13026;49.486;10.926;2022-08-03T12:57:08;3.17;;;1.50;;
25009;SDS011;13026;49.486;10.926;2022-08-03T12:59:39;4.00;;;1.73;;
25009;SDS011;13026;49.486;10.926;2022-08-03T13:02:05;3.00;;;1.70;;
25009;SDS011;13026;49.486;10.926;2022-08-03T13:05:11;3.90;;;1.63;;
25009;SDS011;13026;49.486;10.926;2022-08-03T13:07:44;4.80;;;1.60;;
25009;SDS011;13026;49.486;10.926;2022-08-03T13:10:10;4.10;;;1.70;;
25009;SDS011;13026;49.486;10.926;2022-08-03T13:12:50;4.60;;;1.48;;
25009;SDS011;13026;49.486;10.926;2022-08-03T13:15:16;2.75;;;1.50;;
25009;SDS011;13026;49.486;10.926;2022-08-03T13:17:42;2.15;;;1.50;;
25009;SDS011;13026;49.486;10.926;2022-08-03T13:20:07;1.85;;;1.55;;
25009;SDS011;13026;49.486;10.926;2022-08-03T13:22:33;5.93;;;1.73;;
25009;SDS011;13026;49.486;10.926;2022-08-03T13:24:58;2.45;;;1.30;;
25009;SDS011;13026;49.486;10.926;2022-08-03T13:27:25;1.70;;;1.60;;
25009;SDS011;13026;49.486;10.926;2022-08-03T13:29:51;4.55;;;1.73;;
25009;SDS011;13026;49.486;10.926;2022-08-03T13:32:17;1.52;;;1.42;;
25009;SDS011;13026;49.486;10.926;2022-08-03T13:34:43;4.53;;;1.70;;
25009;SDS011;13026;49.486;10.926;2022-08-03T13:37:08;2.00;;;1.55;;
25009;SDS011;13026;49.486;10.926;2022-08-03T13:39:34;3.65;;;1.63;;
25009;SDS011;13026;49.486;10.926;2022-08-03T13:41:59;2.60;;;1.80;;
25009;SDS011;13026;49.486;10.926;2022-08-03T13:44:25;2.88;;;1.70;;
25009;SDS011;13026;49.486;10.926;2022-08-03T13:46:50;6.65;;;1.67;;
25009;SDS011;13026;49.486;10.926;2022-08-03T13:49:16;5.32;;;1.52;;
25009;SDS011;13026;49.486;10.926;2022-08-03T13:51:42;2.67;;;1.50;;
25009;SDS011;13026;49.486;10.926;2022-08-03T13:54:07;1.75;;;1.48;;
25009;SDS011;13026;49.486;10.926;2022-08-03T13:56:33;1.85;;;1.75;;
25009;SDS011;13026;49.486;10.926;2022-08-03T13:58:58;3.78;;;1.55;;
25009;SDS011;13026;49.486;10.926;2022-08-03T14:01:24;2.40;;;1.70;;
25009;SDS011;13026;49.486;10.926;2022-08-03T14:03:50;1.55;;;1.45;;
25009;SDS011;13026;49.486;10.926;2022-08-03T14:06:16;2.72;;;1.50;;
25009;SDS011;13026;49.486;10.926;2022-08-03T14:08:43;2.88;;;1.73;;
25009;SDS011;13026;49.486;10.926;2022-08-03T14:11:09;3.78;;;1.73;;
25009;SDS011;13026;49.486;10.926;2022-08-03T14:13:35;1.67;;;1.40;;
25009;SDS011;13026;49.486;10.926;2022-08-03T14:16:01;1.70;;;1.60;;
25009;SDS011;13026;49.486;10.926;2022-08-03T14:18:26;4.03;;;1.60;;
25009;SDS011;13026;49.486;10.926;2022-08-03T14:20:52;2.75;;;1.30;;
25009;SDS011;13026;49.486;10.926;2022-08-03T14:23:17;4.13;;;1.80;;
25009;SDS011;13026;49.486;10.926;2022-08-03T14:25:43;2.00;;;1.60;;
25009;SDS011;13026;49.486;10.926;2022-08-03T14:28:08;2.28;;;1.67;;
25009;SDS011;13026;49.486;10.926;2022-08-03T14:30:34;1.65;;;1.50;;
25009;SDS011;13026;49.486;10.926;2022-08-03T14:33:01;3.95;;;1.58;;
25009;SDS011;13026;49.486;10.926;2022-08-03T14:35:26;8.52;;;1.88;;
25009;SDS011;13026;49.486;10.926;2022-08-03T14:37:52;3.13;;;1.52;;
25009;SDS011;13026;49.486;10.926;2022-08-03T14:40:18;3.15;;;1.95;;
25009;SDS011;13026;49.486;10.926;2022-08-03T14:42:44;3.13;;;1.60;;
25009;SDS011;13026;49.486;10.926;2022-08-03T14:45:09;8.20;;;2.00;;
25009;SDS011;13026;49.486;10.926;2022-08-03T14:47:35;6.68;;;1.98;;
25009;SDS011;13026;49.486;10.926;2022-08-03T14:50:01;4.07;;;1.83;;
25009;SDS011;13026;49.486;10.926;2022-08-03T14:52:26;1.80;;;1.48;;
25009;SDS011;13026;49.486;10.926;2022-08-03T14:54:52;3.35;;;1.50;;
25009;SDS011;13026;49.486;10.926;2022-08-03T14:57:18;2.67;;;1.80;;
25009;SDS011;13026;49.486;10.926;2022-08-03T14:59:43;3.72;;;1.65;;
25009;SDS011;13026;49.486;10.926;2022-08-03T15:02:08;4.40;;;1.75;;
25009;SDS011;13026;49.486;10.926;2022-08-03T15:04:34;1.95;;;1.70;;
25009;SDS011;13026;49.486;10.926;2022-08-03T15:07:00;2.30;;;1.55;;
25009;SDS011;13026;49.486;10.926;2022-08-03T15:09:25;2.50;;;1.85;;
25009;SDS011;13026;49.486;10.926;2022-08-03T15:11:51;4.30;;;2.13;;
25009;SDS011;13026;49.486;10.926;2022-08-03T15:14:16;3.65;;;1.45;;